Time;durP1;ratioP1;P1;durP2;ratioP2;P2;SDS_P1;SDS_P2;PMS_P1;PMS_P2;Temp;Humidity;BMP_temperature;BMP_pressure;BME280_temperature;BME280_humidity;BME280_pressure;Samples;Min_cycle;Max_cycle;Signal;HPM_P1;HPM_P2
2022/05/22 00:00:13;;;;;;;;;5.75;5.75;;;;;20.13;56.74;101522.63;5059674;28;45295;-58
2022/05/22 00:02:40;;;;;;;;;7.25;6.25;;;;;20.08;57.03;101515.88;5060319;28;45400;-58
2022/05/22 00:05:07;;;;;;;;;7.50;5.00;;;;;20.05;57.15;101513.44;5059614;28;45414;-58
2022/05/22 00:07:33;;;;;;;;;8.75;6.00;;;;;20.07;57.17;101513.31;5059393;28;45295;-58
2022/05/22 00:09:59;;;;;;;;;10.25;7.00;;;;;20.06;57.27;101506.25;5060012;28;46044;-58
2022/05/22 00:12:25;;;;;;;;;7.75;5.00;;;;;20.03;56.95;101507.38;5060129;28;45422;-58
2022/05/22 00:14:50;;;;;;;;;4.25;4.25;;;;;19.99;57.40;101515.81;5061239;28;45208;-58
2022/05/22 00:17:15;;;;;;;;;9.00;6.75;;;;;19.98;57.27;101522.97;5059941;28;45220;-58
2022/05/22 00:19:41;;;;;;;;;5.25;3.50;;;;;19.99;57.17;101519.34;5058970;28;45524;-58
2022/05/22 00:22:07;;;;;;;;;6.75;6.00;;;;;19.97;57.72;101513.25;5059311;28;45503;-58
2022/05/22 00:24:33;;;;;;;;;4.25;4.25;;;;;19.96;57.48;101510.72;5058583;28;45328;-60
2022/05/22 00:27:02;;;;;;;;;8.25;7.00;;;;;19.93;57.97;101511.00;5053395;28;45423;-59
2022/05/22 00:29:28;;;;;;;;;7.00;5.00;;;;;19.91;57.94;101510.28;5054396;28;45348;-58
2022/05/22 00:31:53;;;;;;;;;5.25;5.25;;;;;19.89;58.01;101502.38;5063270;28;45419;-59
2022/05/22 00:34:19;;;;;;;;;6.75;6.00;;;;;19.88;58.28;101508.72;5063129;28;45485;-59
2022/05/22 00:36:45;;;;;;;;;6.00;6.00;;;;;19.86;58.33;101509.81;5064288;28;45327;-60
2022/05/22 00:39:11;;;;;;;;;9.50;6.00;;;;;19.81;58.35;101496.84;5068252;27;45326;-57
2022/05/22 00:41:37;;;;;;;;;6.75;6.25;;;;;19.79;58.72;101496.97;5063525;28;45492;-58
2022/05/22 00:44:04;;;;;;;;;9.00;7.50;;;;;19.79;60.53;101496.97;5062364;28;45448;-61
2022/05/22 00:46:30;;;;;;;;;9.00;6.00;;;;;19.96;61.83;101483.97;5061952;28;45478;-61
2022/05/22 00:49:08;;;;;;;;;8.25;6.75;;;;;20.17;58.62;101479.44;5065265;28;46109;-61
2022/05/22 00:52:09;;;;;;;;;6.50;4.75;;;;;20.32;58.69;101482.59;5062586;28;45382;-61
2022/05/22 00:54:44;;;;;;;;;7.75;6.00;;;;;20.42;57.05;101482.59;5070926;28;45342;-60
2022/05/22 00:57:32;;;;;;;;;10.50;8.00;;;;;20.32;57.07;101470.06;5071823;28;45465;-60
2022/05/22 01:00:04;;;;;;;;;5.00;5.00;;;;;20.32;56.07;101470.06;5071230;27;45448;-65
2022/05/22 01:03:26;;;;;;;;;6.25;6.00;;;;;20.19;55.99;101463.25;5073263;28;45433;-65
2022/05/22 01:05:16;;;;;;;;;9.50;6.00;;;;;20.12;56.85;101460.25;5073115;28;45372;-66
2022/05/22 01:07:42;;;;;;;;;6.50;6.50;;;;;20.10;56.77;101451.53;5072082;28;45445;-65
2022/05/22 01:10:08;;;;;;;;;6.50;5.00;;;;;20.13;57.04;101445.88;5061619;28;45352;-66
2022/05/22 01:12:34;;;;;;;;;10.50;7.00;;;;;20.15;56.45;101443.09;5063118;28;45162;-66
2022/05/22 01:15:00;;;;;;;;;5.50;5.50;;;;;20.12;56.26;101446.03;5066547;28;45241;-65
2022/05/22 01:17:26;;;;;;;;;5.25;3.75;;;;;20.08;55.89;101432.94;5065830;28;45422;-65
2022/05/22 01:20:00;;;;;;;;;6.75;5.50;;;;;19.97;56.52;101427.69;5063123;28;46038;-65
2022/05/22 01:22:27;;;;;;;;;5.75;5.50;;;;;19.92;56.83;101432.59;5062802;28;45343;-65
2022/05/22 01:24:53;;;;;;;;;9.25;7.00;;;;;19.99;56.35;101435.59;5063056;28;45381;-65
2022/05/22 01:27:21;;;;;;;;;11.25;9.25;;;;;19.97;56.92;101432.19;5063333;28;45564;-65
2022/05/22 01:29:47;;;;;;;;;9.00;8.00;;;;;20.02;56.42;101438.81;5062866;28;46159;-65
2022/05/22 01:32:13;;;;;;;;;7.00;6.00;;;;;20.07;56.88;101435.75;5062864;28;45272;-65
2022/05/22 01:34:38;;;;;;;;;6.00;6.00;;;;;20.07;56.88;101422.38;5062658;28;45235;-65
2022/05/22 01:37:04;;;;;;;;;11.75;6.50;;;;;20.07;56.03;101425.06;5074819;28;45448;-65
2022/05/22 01:39:29;;;;;;;;;7.00;7.00;;;;;19.97;56.16;101419.66;5074309;28;45221;-65
2022/05/22 01:41:55;;;;;;;;;7.25;6.75;;;;;19.96;57.19;101419.78;5062998;28;45450;-64
2022/05/22 01:44:21;;;;;;;;;8.75;5.25;;;;;19.97;57.06;101425.00;5062829;28;45267;-65
2022/05/22 01:46:47;;;;;;;;;9.00;8.00;;;;;20.03;56.38;101426.28;5063115;28;45349;-66
2022/05/22 01:49:13;;;;;;;;;8.00;6.25;;;;;19.98;56.23;101417.81;5062502;28;46218;-65
2022/05/22 01:51:40;;;;;;;;;7.25;6.75;;;;;19.93;56.23;101412.91;5062523;28;45366;-65
2022/05/22 01:54:06;;;;;;;;;5.25;4.75;;;;;19.87;57.23;101404.56;5062578;28;45427;-65
2022/05/22 01:56:34;;;;;;;;;5.75;4.75;;;;;19.90;56.24;101410.47;5062593;28;45312;-65
2022/05/22 01:58:59;;;;;;;;;7.25;6.50;;;;;19.90;56.02;101414.97;5062489;28;45335;-65
2022/05/22 02:01:25;;;;;;;;;10.00;6.75;;;;;19.88;56.25;101420.47;5062484;28;45226;-66
2022/05/22 02:03:51;;;;;;;;;10.25;6.75;;;;;19.93;57.08;101422.75;5062625;28;45291;-65
2022/05/22 02:06:16;;;;;;;;;6.25;6.25;;;;;19.93;56.26;101418.25;5062780;28;45790;-65
2022/05/22 02:08:42;;;;;;;;;7.25;6.00;;;;;19.87;56.03;101412.59;5062395;28;45859;-65
2022/05/22 02:11:08;;;;;;;;;7.00;6.75;;;;;19.80;56.48;101405.09;5062051;28;45366;-65
2022/05/22 02:13:40;;;;;;;;;8.00;6.25;;;;;19.73;56.16;101411.13;5062531;28;45307;-65
2022/05/22 02:16:06;;;;;;;;;10.00;7.75;;;;;19.63;56.19;101420.91;5065094;28;45362;-66
2022/05/22 02:18:32;;;;;;;;;8.00;7.00;;;;;19.59;56.76;101423.03;5062184;28;45660;-65
2022/05/22 02:20:57;;;;;;;;;6.00;6.00;;;;;19.59;57.00;101420.34;5062653;28;45340;-65
2022/05/22 02:23:23;;;;;;;;;8.50;6.50;;;;;19.62;56.81;101420.06;5062056;28;45290;-65
2022/05/22 02:25:52;;;;;;;;;6.50;6.00;;;;;19.58;56.83;101425.81;5062244;28;45252;-65
2022/05/22 02:28:19;;;;;;;;;7.00;7.00;;;;;19.55;56.63;101418.03;5061834;28;45379;-66
2022/05/22 02:30:50;;;;;;;;;8.25;7.00;;;;;19.50;57.09;101424.59;5062177;28;45346;-66
2022/05/22 02:33:17;;;;;;;;;9.00;6.00;;;;;19.52;56.97;101424.50;5062100;28;45421;-65
2022/05/22 02:35:42;;;;;;;;;7.00;6.00;;;;;19.50;57.03;101434.44;5062080;28;45240;-66
2022/05/22 02:38:08;;;;;;;;;9.75;8.00;;;;;19.46;56.85;101422.34;5061976;28;45870;-65
2022/05/22 02:40:34;;;;;;;;;7.25;6.75;;;;;19.41;56.74;101416.53;5074974;28;45402;-66
2022/05/22 02:43:01;;;;;;;;;10.25;8.50;;;;;19.36;57.17;101426.78;5061949;28;45247;-66
2022/05/22 02:45:30;;;;;;;;;12.50;7.25;;;;;19.33;56.77;101427.03;5061995;28;45239;-66
2022/05/22 02:47:57;;;;;;;;;6.75;6.75;;;;;19.29;57.28;101433.63;5061907;28;45437;-66
2022/05/22 02:50:24;;;;;;;;;11.00;10.00;;;;;19.27;57.46;101441.75;5061656;28;45330;-66
2022/05/22 02:52:50;;;;;;;;;9.00;9.00;;;;;19.33;57.57;101440.38;5060742;28;45286;-66
2022/05/22 02:55:17;;;;;;;;;8.50;7.50;;;;;19.38;57.82;101441.69;5061290;28;45236;-66
2022/05/22 02:57:43;;;;;;;;;12.50;7.00;;;;;19.51;58.20;101444.16;5068422;28;45409;-66
2022/05/22 03:00:16;;;;;;;;;11.00;8.00;;;;;19.64;58.19;101438.66;5068221;27;45308;-66
2022/05/22 03:02:41;;;;;;;;;9.50;9.00;;;;;19.73;57.08;101441.34;5061892;28;45506;-66
2022/05/22 03:05:07;;;;;;;;;10.25;8.00;;;;;19.73;56.45;101445.88;5061729;28;45398;-66
2022/05/22 03:07:37;;;;;;;;;8.25;6.00;;;;;19.68;57.00;101438.25;5061671;28;45314;-66
2022/05/22 03:10:08;;;;;;;;;7.25;6.50;;;;;19.71;57.07;101437.97;5061259;28;45340;-66
2022/05/22 03:12:35;;;;;;;;;9.50;6.50;;;;;19.74;57.17;101439.53;5061417;28;45370;-66
2022/05/22 03:15:02;;;;;;;;;7.75;7.00;;;;;19.74;56.73;101428.84;5062303;28;45394;-66
2022/05/22 03:17:27;;;;;;;;;10.00;7.00;;;;;19.73;57.73;101436.00;5061538;28;46682;-66
2022/05/22 03:19:53;;;;;;;;;7.25;7.25;;;;;19.78;56.84;101425.78;5061317;28;45252;-66
2022/05/22 03:22:20;;;;;;;;;8.00;6.00;;;;;19.77;57.01;101420.56;5061117;28;45236;-66
2022/05/22 03:24:46;;;;;;;;;10.00;7.00;;;;;19.75;56.44;101414.53;5061447;28;45514;-66
2022/05/22 03:27:14;;;;;;;;;7.50;6.25;;;;;19.71;57.08;101410.41;5061117;28;46101;-66
2022/05/22 03:29:41;;;;;;;;;7.50;7.25;;;;;19.76;56.37;101405.50;5068398;28;45346;-66
2022/05/22 03:32:07;;;;;;;;;8.50;7.00;;;;;19.73;56.45;101395.91;5067191;27;45252;-66
2022/05/22 03:34:34;;;;;;;;;8.00;7.00;;;;;19.74;56.67;101388.75;5061202;28;45430;-66
2022/05/22 03:37:00;;;;;;;;;6.50;6.50;;;;;19.74;57.03;101399.44;5060996;28;45438;-66
2022/05/22 03:39:26;;;;;;;;;11.75;8.00;;;;;19.77;56.41;101392.00;5097454;27;45497;-65
2022/05/22 03:41:52;;;;;;;;;8.50;7.25;;;;;19.81;56.46;101389.91;5071134;27;45498;-65
2022/05/22 03:44:18;;;;;;;;;9.00;7.25;;;;;19.81;55.97;101376.53;5060971;28;45276;-65
2022/05/22 03:46:46;;;;;;;;;10.75;7.25;;;;;19.77;56.34;101381.31;5061585;28;45292;-66
2022/05/22 03:49:12;;;;;;;;;8.00;7.00;;;;;19.76;57.01;101379.63;5071890;27;45260;-66
2022/05/22 03:51:39;;;;;;;;;9.50;8.75;;;;;19.79;56.42;101384.69;5060796;28;45173;-66
2022/05/22 03:54:05;;;;;;;;;12.00;7.50;;;;;19.76;55.79;101389.47;5061046;28;45483;-66
2022/05/22 03:56:31;;;;;;;;;12.50;9.00;;;;;19.71;56.08;101387.19;5062009;28;46539;-66
2022/05/22 03:58:56;;;;;;;;;6.75;6.75;;;;;19.71;56.67;101389.88;5076484;27;45210;-66
2022/05/22 04:01:22;;;;;;;;;12.25;8.25;;;;;19.71;56.06;101389.88;5061043;28;45518;-66
2022/05/22 04:03:47;;;;;;;;;9.50;9.00;;;;;19.61;55.78;101380.97;5062666;28;45276;-65
2022/05/22 04:06:13;;;;;;;;;9.50;6.25;;;;;19.56;56.37;101385.81;5064363;28;45583;-66
2022/05/22 04:08:38;;;;;;;;;9.00;7.25;;;;;19.56;56.50;101374.28;5073422;27;45271;-66
2022/05/22 04:11:14;;;;;;;;;9.75;7.00;;;;;19.56;56.76;101366.28;5077945;28;45303;-66
2022/05/22 04:13:40;;;;;;;;;10.00;8.75;;;;;19.53;56.67;101365.56;5064266;28;45260;-66
2022/05/22 04:16:06;;;;;;;;;9.75;7.50;;;;;19.51;56.12;101356.84;5066940;28;47046;-66
2022/05/22 04:18:32;;;;;;;;;10.00;9.75;;;;;19.50;56.42;101355.13;5074396;28;45323;-65
2022/05/22 04:20:58;;;;;;;;;8.00;6.75;;;;;19.49;56.33;101358.78;5066921;27;45531;-66
2022/05/22 04:26:09;;;;;;;;;10.00;7.75;;;;;19.50;56.39;101351.59;5063791;28;45794;-65
2022/05/22 04:28:35;;;;;;;;;8.00;7.75;;;;;19.47;56.44;101351.88;5064006;28;45712;-65
2022/05/22 04:31:03;;;;;;;;;12.00;10.00;;;;;19.44;56.99;101360.19;5064188;28;45219;-65
2022/05/22 04:33:29;;;;;;;;;8.00;8.00;;;;;19.46;56.61;101358.22;5063711;28;45421;-66
2022/05/22 04:35:55;;;;;;;;;8.00;8.00;;;;;19.45;56.16;101361.88;5063450;28;45395;-65
2022/05/22 04:38:21;;;;;;;;;9.00;7.25;;;;;19.29;56.31;101365.03;5063646;28;45369;-66
2022/05/22 04:41:02;;;;;;;;;9.00;8.00;;;;;19.22;57.24;101359.34;5068547;28;45299;-65
2022/05/22 04:43:30;;;;;;;;;8.00;6.00;;;;;19.19;57.08;101358.75;5073907;28;45299;-65
2022/05/22 04:45:56;;;;;;;;;9.75;7.25;;;;;19.23;57.43;101363.72;5082074;27;45415;-66
2022/05/22 04:48:24;;;;;;;;;7.50;7.50;;;;;19.23;56.84;101363.72;5072548;27;45338;-65
2022/05/22 04:50:51;;;;;;;;;9.00;8.25;;;;;19.11;56.53;101366.56;5063697;28;45281;-64
2022/05/22 04:53:18;;;;;;;;;9.75;9.00;;;;;18.94;57.08;101366.19;5063488;28;45165;-65
2022/05/22 04:55:44;;;;;;;;;7.00;6.75;;;;;18.84;57.54;101381.28;5063532;28;45390;-65
2022/05/22 04:58:10;;;;;;;;;11.00;9.25;;;;;18.88;56.97;101380.06;5063409;28;45378;-65
2022/05/22 05:00:36;;;;;;;;;11.25;8.00;;;;;18.95;58.23;101380.38;5063672;28;45406;-65
2022/05/22 05:03:02;;;;;;;;;8.00;7.00;;;;;19.04;57.73;101384.97;5063706;28;45319;-65
2022/05/22 05:05:28;;;;;;;;;11.25;7.75;;;;;19.09;57.16;101385.41;5063524;28;45346;-64
2022/05/22 05:07:54;;;;;;;;;9.25;7.25;;;;;19.09;57.24;101385.41;5063000;28;45248;-65
2022/05/22 05:10:19;;;;;;;;;11.00;10.75;;;;;19.08;57.21;101389.06;5063488;28;45423;-65
2022/05/22 05:12:45;;;;;;;;;6.75;6.50;;;;;19.02;57.16;101383.38;5063499;28;45501;-64
2022/05/22 05:15:13;;;;;;;;;11.50;8.75;;;;;19.01;57.53;101379.03;5062240;28;45898;-65
2022/05/22 05:17:41;;;;;;;;;8.25;7.00;;;;;19.00;56.95;101383.50;5063323;28;45314;-64
2022/05/22 05:20:07;;;;;;;;;9.50;7.50;;;;;18.93;57.59;101390.34;5063329;28;45261;-64
2022/05/22 05:22:33;;;;;;;;;11.25;10.00;;;;;18.92;57.86;101377.97;5063092;28;45200;-64
2022/05/22 05:24:59;;;;;;;;;10.00;8.50;;;;;18.94;57.67;101376.00;5063104;28;45283;-64
2022/05/22 05:27:24;;;;;;;;;10.25;7.75;;;;;19.03;57.67;101377.06;5063114;28;45254;-65
2022/05/22 05:29:50;;;;;;;;;9.00;6.00;;;;;19.11;57.23;101380.78;5063208;28;45233;-64
2022/05/22 05:32:20;;;;;;;;;11.00;10.00;;;;;19.17;57.46;101380.25;5063242;28;45525;-64
2022/05/22 05:34:45;;;;;;;;;8.00;7.00;;;;;19.25;57.12;101382.28;5063141;28;45311;-65
2022/05/22 05:37:10;;;;;;;;;11.00;8.25;;;;;19.26;57.22;101378.63;5062657;28;45382;-64
2022/05/22 05:39:36;;;;;;;;;8.00;7.25;;;;;19.26;57.01;101383.97;5068862;28;45338;-65
2022/05/22 05:42:02;;;;;;;;;7.75;7.50;;;;;19.29;57.48;101388.22;5064688;28;45279;-66
2022/05/22 05:44:28;;;;;;;;;10.25;8.00;;;;;19.41;57.02;101392.50;5063140;28;46188;-65
2022/05/22 05:46:54;;;;;;;;;7.50;6.25;;;;;19.53;57.24;101394.97;5074190;28;45321;-65
2022/05/22 05:49:19;;;;;;;;;9.00;6.50;;;;;19.59;57.14;101400.75;5064492;27;45274;-65
2022/05/22 05:51:45;;;;;;;;;9.00;9.00;;;;;19.63;56.13;101403.06;5062757;28;45411;-65
2022/05/22 05:54:10;;;;;;;;;8.00;8.00;;;;;19.68;56.23;101397.31;5062537;28;46046;-65
2022/05/22 05:56:40;;;;;;;;;10.00;7.00;;;;;19.64;56.40;101391.38;5062220;28;45227;-64
2022/05/22 05:59:06;;;;;;;;;9.00;7.00;;;;;19.68;56.41;101378.59;5063090;28;45310;-64
2022/05/22 06:01:33;;;;;;;;;8.50;8.50;;;;;19.78;56.25;101369.63;5062542;28;45169;-64
2022/05/22 06:03:59;;;;;;;;;9.75;8.25;;;;;19.83;55.46;101371.03;5062442;28;45351;-65
2022/05/22 06:06:25;;;;;;;;;9.50;8.00;;;;;19.77;55.42;101367.94;5062300;28;45276;-64
2022/05/22 06:08:51;;;;;;;;;10.25;8.00;;;;;19.71;55.96;101360.47;5062435;28;45227;-64
2022/05/22 06:11:17;;;;;;;;;8.50;8.25;;;;;19.67;55.46;101363.53;5062606;28;45423;-65
2022/05/22 06:13:42;;;;;;;;;8.50;8.50;;;;;19.67;55.80;101364.41;5062499;28;45337;-65
2022/05/22 06:16:08;;;;;;;;;9.50;8.50;;;;;19.78;56.05;101360.78;5068876;28;45497;-65
2022/05/22 06:18:34;;;;;;;;;12.25;10.50;;;;;19.87;55.58;101354.59;5062257;28;45440;-65
2022/05/22 06:21:08;;;;;;;;;11.00;10.00;;;;;19.89;55.34;101354.47;5062333;28;45481;-65
2022/05/22 06:23:34;;;;;;;;;8.50;8.25;;;;;19.91;55.37;101342.66;5062124;28;45379;-65
2022/05/22 06:25:59;;;;;;;;;9.00;8.75;;;;;20.00;55.45;101332.97;5061972;28;45358;-65
2022/05/22 06:28:25;;;;;;;;;11.50;8.75;;;;;20.06;55.51;101333.28;5062233;28;45461;-65
2022/05/22 06:30:50;;;;;;;;;13.00;11.00;;;;;20.04;55.46;101337.91;5062169;28;45319;-65
2022/05/22 06:33:16;;;;;;;;;7.75;7.75;;;;;20.10;55.14;101324.97;5062110;28;45993;-65
2022/05/22 06:35:43;;;;;;;;;12.00;9.75;;;;;20.15;54.91;101315.56;5061874;28;45421;-65
2022/05/22 06:39:49;;;;;;;;;7.25;7.25;;;;;20.19;54.68;101310.75;5062080;28;45236;-65
2022/05/22 06:40:56;;;;;;;;;10.75;9.50;;;;;20.26;54.98;101306.53;5064490;28;45643;-66
2022/05/22 06:43:22;;;;;;;;;9.00;7.75;;;;;20.29;54.43;101295.53;5062033;28;46020;-66
2022/05/22 06:45:51;;;;;;;;;11.25;10.25;;;;;20.33;54.37;101289.78;5061689;28;45815;-66
2022/05/22 06:48:17;;;;;;;;;10.00;7.75;;;;;20.32;54.88;101289.94;5062264;28;45474;-65
2022/05/22 06:50:43;;;;;;;;;7.50;6.00;;;;;20.34;54.52;101286.13;5061899;28;45461;-66
2022/05/22 06:53:09;;;;;;;;;8.00;7.25;;;;;20.37;54.84;101274.28;5076182;28;45302;-63
2022/05/22 06:55:35;;;;;;;;;6.00;6.00;;;;;20.48;54.42;101276.03;5070676;27;45329;-63
2022/05/22 06:58:00;;;;;;;;;8.00;8.00;;;;;20.57;54.36;101278.69;5061208;28;45331;-63
2022/05/22 07:00:27;;;;;;;;;10.50;7.00;;;;;20.65;53.92;101287.84;5061787;28;45408;-61
2022/05/22 07:02:53;;;;;;;;;13.25;8.00;;;;;20.72;53.68;101284.44;5065459;28;45512;-63
2022/05/22 07:05:20;;;;;;;;;6.25;6.25;;;;;20.80;54.30;101287.25;5061424;28;45287;-63
2022/05/22 07:07:46;;;;;;;;;6.50;6.00;;;;;20.89;54.29;101280.19;5054475;28;45618;-62
2022/05/22 07:10:12;;;;;;;;;5.50;5.00;;;;;20.95;54.14;101278.75;5054435;28;45325;-62
2022/05/22 07:12:38;;;;;;;;;8.25;6.50;;;;;21.00;53.78;101280.00;5053460;28;47940;-62
2022/05/22 07:15:05;;;;;;;;;11.00;8.00;;;;;21.01;53.61;101281.69;5061335;28;45406;-62
2022/05/22 07:17:30;;;;;;;;;6.00;4.75;;;;;21.04;54.55;101275.22;5060887;28;45417;-62
2022/05/22 07:19:56;;;;;;;;;8.00;7.50;;;;;21.04;53.09;101284.09;5060329;28;45233;-62
2022/05/22 07:22:24;;;;;;;;;9.25;9.25;;;;;20.97;53.63;101279.47;5060833;28;46080;-63
2022/05/22 07:24:51;;;;;;;;;7.00;7.00;;;;;20.92;53.72;101279.88;5055567;28;45342;-62
2022/05/22 07:27:16;;;;;;;;;6.75;6.75;;;;;20.94;53.83;101282.44;5062634;28;45314;-63
2022/05/22 07:29:43;;;;;;;;;6.00;6.00;;;;;20.94;54.74;101271.72;5061022;28;45525;-62
2022/05/22 07:32:08;;;;;;;;;7.50;5.75;;;;;20.97;53.50;101212.50;5060032;28;45227;-62
2022/05/22 07:34:35;;;;;;;;;7.00;5.00;;;;;20.98;52.75;101232.94;5065858;28;45176;-62
2022/05/22 07:37:04;;;;;;;;;7.50;6.25;;;;;20.92;53.12;101286.06;5060025;28;45215;-62
2022/05/22 07:39:30;;;;;;;;;4.75;4.75;;;;;20.85;53.54;101281.44;5068520;28;45422;-62
2022/05/22 07:41:56;;;;;;;;;4.50;4.50;;;;;20.85;52.39;101270.72;5053821;28;46235;-62
2022/05/22 07:44:22;;;;;;;;;6.25;5.00;;;;;20.80;52.55;101281.06;5062009;28;45477;-62
2022/05/22 07:46:48;;;;;;;;;5.00;5.00;;;;;20.76;54.06;101271.59;5061010;28;45298;-64
2022/05/22 07:52:05;;;;;;;;;5.00;4.50;;;;;20.91;53.13;101278.19;5066436;28;45405;-62
2022/05/22 07:54:40;;;;;;;;;7.00;3.50;;;;;20.96;54.66;101264.38;5062315;28;45347;-61
2022/05/22 07:57:07;;;;;;;;;4.50;3.75;;;;;21.06;52.73;101262.50;5063642;28;45293;-62
2022/05/22 07:59:34;;;;;;;;;5.75;5.00;;;;;21.14;52.93;101250.06;5047286;28;45441;-61
2022/05/22 08:02:00;;;;;;;;;3.50;3.00;;;;;21.24;52.46;101241.97;5059024;28;46019;-61
2022/05/22 08:04:26;;;;;;;;;7.00;5.25;;;;;21.35;52.86;101247.19;5059770;28;45261;-61
2022/05/22 08:06:51;;;;;;;;;6.50;4.25;;;;;21.45;53.51;101234.59;5060564;28;45310;-62
2022/05/22 08:09:17;;;;;;;;;4.00;3.50;;;;;21.57;51.75;101231.72;5063470;28;45260;-63
2022/05/22 08:11:43;;;;;;;;;5.00;4.00;;;;;21.68;51.64;101234.19;5067187;28;46040;-61
2022/05/22 08:14:08;;;;;;;;;5.75;4.25;;;;;21.72;51.47;101225.69;5063821;28;45345;-61
2022/05/22 08:16:34;;;;;;;;;8.50;4.75;;;;;21.77;50.97;101198.41;5066893;28;45482;-61
2022/05/22 08:18:59;;;;;;;;;7.00;3.50;;;;;21.85;50.97;101203.00;5060431;28;45600;-61
2022/05/22 08:21:25;;;;;;;;;5.50;3.50;;;;;21.89;51.50;101205.25;5060461;28;46045;-62
2022/05/22 08:23:50;;;;;;;;;6.50;3.25;;;;;22.00;51.28;101190.75;5059657;28;45276;-62
2022/05/22 08:26:15;;;;;;;;;6.50;3.50;;;;;22.12;51.18;101177.94;5060208;28;45228;-61
2022/05/22 08:28:41;;;;;;;;;2.00;2.00;;;;;22.22;49.43;101173.34;5059714;28;45303;-62
2022/05/22 08:31:06;;;;;;;;;6.25;3.75;;;;;22.24;49.78;101168.66;5060536;28;46232;-62
2022/05/22 08:33:34;;;;;;;;;4.00;3.75;;;;;22.26;48.92;101172.88;5059840;28;45307;-63
2022/05/22 08:36:00;;;;;;;;;6.00;4.00;;;;;22.23;48.83;101175.88;5059288;28;45257;-62
2022/05/22 08:38:25;;;;;;;;;7.00;5.25;;;;;22.18;48.44;101180.00;5059791;28;45311;-61
2022/05/22 08:41:32;;;;;;;;;5.75;3.75;;;;;22.19;49.14;101179.00;5067096;28;45457;-62
2022/05/22 08:44:15;;;;;;;;;5.00;4.75;;;;;22.21;49.05;101187.78;5068093;28;45410;-61
2022/05/22 08:46:58;;;;;;;;;3.25;3.25;;;;;22.26;49.22;101193.50;5068949;28;45345;-61
2022/05/22 08:49:31;;;;;;;;;6.25;5.25;;;;;22.33;48.34;101199.94;5067168;28;45449;-61
2022/05/22 08:52:47;;;;;;;;;5.50;3.50;;;;;22.33;48.87;101189.19;5072339;28;46009;-61
2022/05/22 08:55:18;;;;;;;;;7.00;3.25;;;;;22.38;48.38;101189.59;4989118;28;45445;-61
2022/05/22 09:00:38;;;;;;;;;4.50;2.75;;;;;22.42;48.22;101177.50;5061827;28;45599;-62
2022/05/22 09:03:17;;;;;;;;;5.00;4.00;;;;;22.46;48.09;101178.06;5070650;28;45517;-62
2022/05/22 09:05:44;;;;;;;;;5.00;2.25;;;;;22.50;47.44;101166.00;5074980;28;45177;-62
2022/05/22 09:08:21;;;;;;;;;3.00;2.75;;;;;22.55;48.10;101171.75;5093005;27;45477;-62
2022/05/22 09:11:03;;;;;;;;;3.00;2.25;;;;;22.64;47.57;101164.56;5065680;28;45298;-62
2022/05/22 09:13:54;;;;;;;;;3.00;3.00;;;;;22.73;47.24;101163.63;5069662;28;46054;-61
2022/05/22 09:16:33;;;;;;;;;6.00;3.00;;;;;22.74;47.22;101165.28;5075941;28;45369;-63
2022/05/22 09:19:29;;;;;;;;;3.75;2.00;;;;;22.76;46.86;101152.56;5060120;28;45347;-64
2022/05/22 09:22:21;;;;;;;;;4.25;3.00;;;;;22.74;46.56;101151.88;5071789;28;45444;-67
2022/05/22 09:25:16;;;;;;;;;2.25;2.25;;;;;22.74;46.69;101157.22;5066614;28;46017;-63
2022/05/22 09:28:00;;;;;;;;;2.75;2.75;;;;;22.73;46.46;101159.09;5064598;28;45378;-64
2022/05/22 09:30:41;;;;;;;;;3.50;2.75;;;;;22.73;46.52;101152.88;5059988;28;45388;-64
2022/05/22 09:33:35;;;;;;;;;4.25;3.75;;;;;22.76;46.48;101144.50;5061707;28;45387;-63
2022/05/22 09:36:07;;;;;;;;;3.25;2.75;;;;;22.83;46.34;101141.03;5052382;28;45330;-55
2022/05/22 09:38:44;;;;;;;;;3.00;3.00;;;;;22.93;46.14;101137.41;5065881;28;45188;-63
2022/05/22 09:41:23;;;;;;;;;1.75;1.75;;;;;23.04;45.34;101124.50;5061394;28;45312;-73
2022/05/22 09:44:03;;;;;;;;;0.00;0.00;;;;;23.08;44.10;101125.88;5050636;28;46728;-65
2022/05/22 09:46:53;;;;;;;;;4.75;1.50;;;;;23.08;43.81;101125.03;5062546;28;45247;-65
2022/05/22 09:49:37;;;;;;;;;1.50;1.50;;;;;23.04;43.62;101129.88;5062764;28;44721;-63
2022/05/22 09:52:24;;;;;;;;;3.00;1.00;;;;;23.02;43.52;101113.06;5070773;28;45481;-63
2022/05/22 09:55:01;;;;;;;;;3.00;1.25;;;;;23.00;43.18;101108.88;5060131;28;45386;-63
2022/05/22 09:57:27;;;;;;;;;3.75;2.25;;;;;22.99;42.89;101107.19;5067827;28;45666;-59
2022/05/22 10:00:17;;;;;;;;;3.00;2.00;;;;;22.97;42.78;101095.75;5061336;28;45366;-58
2022/05/22 10:03:04;;;;;;;;;2.00;1.75;;;;;22.98;43.29;101084.00;5059154;28;47197;-65
2022/05/22 10:05:34;;;;;;;;;1.75;1.75;;;;;22.98;42.30;101079.47;5061474;28;45434;-63
2022/05/22 10:08:23;;;;;;;;;2.50;2.50;;;;;23.00;42.55;101068.56;5072100;28;45339;-62
2022/05/22 10:10:57;;;;;;;;;2.25;1.75;;;;;22.99;42.71;101073.13;5063218;28;45479;-62
2022/05/22 10:13:55;;;;;;;;;3.00;1.50;;;;;23.00;42.18;101060.53;5070897;28;45633;-62
2022/05/22 10:16:47;;;;;;;;;2.50;1.75;;;;;23.00;42.00;101055.16;5071686;28;45479;-64
2022/05/22 10:19:31;;;;;;;;;4.00;2.00;;;;;23.00;43.06;101042.56;5068332;27;45315;-61
2022/05/22 10:22:23;;;;;;;;;3.00;3.00;;;;;23.01;42.76;101056.81;5069520;28;45318;-62
2022/05/22 10:25:07;;;;;;;;;2.00;1.75;;;;;23.03;42.87;101060.19;5069677;28;45460;-64
2022/05/22 10:27:54;;;;;;;;;2.75;1.25;;;;;22.97;43.11;101064.34;5066502;28;45455;-61
2022/05/22 10:30:30;;;;;;;;;3.00;1.00;;;;;22.98;42.29;101057.97;5064382;28;46183;-63
2022/05/22 10:33:28;;;;;;;;;5.75;2.00;;;;;22.96;43.08;101038.50;5061108;28;45228;-61
2022/05/22 10:36:22;;;;;;;;;3.00;2.75;;;;;22.95;43.00;101033.28;5053307;28;45536;-66
2022/05/22 10:39:17;;;;;;;;;4.00;3.00;;;;;22.99;43.54;101023.91;5060034;28;45789;-60
2022/05/22 10:45:10;;;;;;;;;4.00;2.25;;;;;23.04;44.09;100994.69;5059585;28;45461;-59
2022/05/22 10:47:35;;;;;;;;;2.25;2.25;;;;;23.05;43.68;100991.81;5060657;28;45413;-59
2022/05/22 10:50:19;;;;;;;;;5.75;3.00;;;;;23.05;43.84;100985.59;5061095;28;45212;-59
2022/05/22 10:52:45;;;;;;;;;3.75;3.00;;;;;23.02;44.22;100983.25;5058567;28;45497;-60
2022/05/22 10:55:44;;;;;;;;;3.00;3.00;;;;;22.97;43.99;100980.22;5058948;28;45748;-59
2022/05/22 10:58:20;;;;;;;;;3.00;3.00;;;;;22.94;43.83;100986.78;5053975;28;45252;-66
2022/05/22 11:00:57;;;;;;;;;2.00;2.00;;;;;22.92;43.52;100971.84;5057927;28;45505;-60
2022/05/22 11:03:26;;;;;;;;;4.50;3.75;;;;;22.89;43.66;100962.25;5056387;28;45506;-58
2022/05/22 11:05:52;;;;;;;;;2.75;2.75;;;;;22.87;44.04;100958.91;5060689;28;45365;-63
2022/05/22 11:08:31;;;;;;;;;3.00;3.00;;;;;22.85;44.34;100960.91;5060928;28;45227;-47
2022/05/22 11:11:22;;;;;;;;;7.25;5.75;;;;;22.80;45.16;100960.53;5059856;28;45469;-46
2022/05/22 11:13:48;;;;;;;;;60.25;47.75;;;;;22.78;45.70;100973.28;5058949;28;45660;-47
2022/05/22 11:16:18;;;;;;;;;7.50;6.75;;;;;22.79;44.70;100967.75;5057535;28;47033;-52
2022/05/22 11:18:44;;;;;;;;;38.75;31.00;;;;;22.76;45.16;100967.25;5060461;28;45339;-46
2022/05/22 11:21:34;;;;;;;;;7.00;7.00;;;;;22.73;45.86;100964.88;5059939;28;45295;-49
2022/05/22 11:24:13;;;;;;;;;4.50;4.00;;;;;22.69;45.56;100961.69;5060348;28;45463;-51
2022/05/22 11:26:54;;;;;;;;;4.75;4.75;;;;;22.66;46.06;100956.63;5059523;28;45497;-48
2022/05/22 11:29:29;;;;;;;;;16.50;16.50;;;;;22.66;46.79;100982.63;5059662;28;45232;-48
2022/05/22 11:32:06;;;;;;;;;6.50;6.00;;;;;22.64;46.99;100973.91;5060251;28;46613;-47
2022/05/22 11:35:07;;;;;;;;;7.75;7.00;;;;;22.64;47.06;100964.00;5059092;28;46336;-47
2022/05/22 11:37:49;;;;;;;;;3.00;2.75;;;;;22.64;46.85;100957.81;5055233;28;45364;-46
2022/05/22 11:40:26;;;;;;;;;3.50;2.50;;;;;22.60;46.37;100951.09;5059163;28;45533;-47
2022/05/22 11:43:12;;;;;;;;;4.25;4.00;;;;;22.57;46.05;100950.41;5063519;28;45485;-46
2022/05/22 11:46:00;;;;;;;;;3.00;3.00;;;;;22.55;46.02;100949.72;5063969;28;45326;-46
2022/05/22 11:48:40;;;;;;;;;4.00;4.00;;;;;22.55;46.82;100971.19;5063760;28;45331;-47
2022/05/22 11:51:23;;;;;;;;;4.75;4.75;;;;;22.65;46.84;100981.81;5049566;28;45283;-45